Terminal Aerodrome Forecast
Issued by NWS

Home | Current Version | Previous Version | Text Only | Print | Product List | Glossary On
Versions: 1 2 3 4 5 6 7 8 9 10 11 12 13 14 15 16 17 18 19 20 21 22 23 24 25
000
FTAK31 PAJN 291744
TAFASI
TAF
PASI 291744Z 2918/3018 12006KT P6SM -SHRA SCT025 OVC040
      TEMPO 2918/2922 5SM -SHRA BR BKN025
     FM292200 20008KT P6SM VCSH SCT025 OVC050
     FM300300 VRB04KT P6SM -SHRA SCT015 OVC025
     FM300900 10008KT P6SM -RA BKN012 OVC025=

USA.gov is the U.S. government's official web portal to all federal, state and local government web resources and services.